Time;durP1;ratioP1;P1;durP2;ratioP2;P2;SDS_P1;SDS_P2;PMS_P1;PMS_P2;Temp;Humidity;BMP_temperature;BMP_pressure;BME280_temperature;BME280_humidity;BME280_pressure;Samples;Min_cycle;Max_cycle;Signal;HPM_P1;HPM_P2
2023/08/24 00:01:51;;;;;;;4.03;1.40;;;15.10;99.90;;;;;;5113696;28;20702;-72
2023/08/24 00:04:37;;;;;;;4.95;1.77;;;15.10;99.90;;;;;;5113059;28;20055;-81
2023/08/24 00:07:23;;;;;;;5.30;1.80;;;15.00;99.90;;;;;;5112471;28;20055;-79
2023/08/24 00:10:10;;;;;;;6.88;2.05;;;15.00;99.90;;;;;;5110531;28;20159;-74
2023/08/24 00:12:56;;;;;;;5.38;2.08;;;15.00;99.90;;;;;;5112102;28;20506;-75
2023/08/24 00:15:43;;;;;;;5.32;1.92;;;15.00;99.90;;;;;;5110848;28;20133;-72
2023/08/24 00:18:29;;;;;;;5.90;1.80;;;15.00;99.90;;;;;;5110818;28;20059;-77
2023/08/24 00:21:22;;;;;;;8.57;2.00;;;15.00;99.90;;;;;;5109716;28;20134;-76
2023/08/24 00:24:08;;;;;;;6.05;2.20;;;15.10;99.90;;;;;;5109808;28;20044;-73
2023/08/24 00:26:54;;;;;;;9.10;2.30;;;15.10;99.90;;;;;;5109028;28;20528;-71
2023/08/24 00:29:40;;;;;;;4.97;2.17;;;15.10;99.90;;;;;;5110534;28;20503;-77
2023/08/24 00:32:27;;;;;;;5.10;2.05;;;15.10;99.90;;;;;;5111430;28;20044;-70
2023/08/24 00:35:13;;;;;;;5.10;2.90;;;15.10;99.90;;;;;;5110945;28;20138;-71
2023/08/24 00:37:59;;;;;;;6.38;2.90;;;15.10;99.90;;;;;;5109909;28;20051;-72
2023/08/24 00:40:46;;;;;;;5.13;3.03;;;15.10;99.90;;;;;;5112844;28;20048;-70
2023/08/24 00:43:32;;;;;;;5.97;2.60;;;15.10;99.90;;;;;;5096379;28;20054;-75
2023/08/24 00:46:18;;;;;;;11.07;2.88;;;15.20;99.90;;;;;;5111734;28;20039;-72
2023/08/24 00:49:04;;;;;;;6.78;3.22;;;15.20;99.90;;;;;;5110517;28;20044;-72
2023/08/24 00:51:51;;;;;;;8.60;3.10;;;15.20;99.90;;;;;;5111439;28;20048;-70
2023/08/24 00:54:39;;;;;;;8.00;3.70;;;15.20;99.90;;;;;;5096148;28;20415;-74
2023/08/24 00:57:29;;;;;;;9.93;4.75;;;15.30;99.90;;;;;;5110369;28;20489;-74
2023/08/24 01:00:16;;;;;;;8.55;3.85;;;15.40;99.90;;;;;;5110112;28;20132;-70
2023/08/24 01:03:03;;;;;;;10.50;5.07;;;15.40;99.90;;;;;;5110074;28;20047;-71
2023/08/24 01:05:49;;;;;;;15.85;8.27;;;15.40;99.90;;;;;;5111015;28;20394;-73
2023/08/24 01:08:35;;;;;;;9.27;5.00;;;15.50;99.90;;;;;;5110832;28;20051;-71
2023/08/24 01:11:33;;;;;;;7.28;3.83;;;15.50;99.90;;;;;;5110793;28;20054;-74
2023/08/24 01:14:30;;;;;;;8.23;3.83;;;15.50;99.90;;;;;;5095036;28;20063;-76
2023/08/24 01:17:23;;;;;;;9.93;3.30;;;15.50;99.90;;;;;;5109817;28;20482;-74
2023/08/24 01:20:12;;;;;;;5.90;3.60;;;15.50;99.90;;;;;;5111407;28;20468;-75
2023/08/24 01:23:04;;;;;;;8.70;3.97;;;15.50;99.90;;;;;;5108877;28;20051;-74
2023/08/24 01:26:14;;;;;;;7.60;3.38;;;15.50;99.90;;;;;;5110660;28;20159;-71
2023/08/24 01:29:03;;;;;;;7.32;3.67;;;15.50;99.90;;;;;;5111495;28;20548;-70
2023/08/24 01:31:50;;;;;;;6.05;3.70;;;15.50;99.90;;;;;;5111168;28;20055;-72
2023/08/24 01:34:39;;;;;;;7.22;3.88;;;15.50;99.90;;;;;;5095485;28;20548;-73
2023/08/24 01:37:27;;;;;;;9.98;5.53;;;15.50;99.90;;;;;;5115243;28;20138;-71
2023/08/24 01:40:17;;;;;;;5.93;3.78;;;15.50;99.90;;;;;;5113662;28;20086;-74
2023/08/24 01:43:06;;;;;;;7.07;4.63;;;15.50;99.90;;;;;;5114729;28;20086;-72
2023/08/24 01:45:55;;;;;;;11.57;4.88;;;15.50;99.90;;;;;;5114990;28;20384;-73
2023/08/24 01:48:42;;;;;;;6.45;3.85;;;15.50;99.90;;;;;;5115354;28;20082;-73
2023/08/24 01:51:29;;;;;;;8.73;4.57;;;15.50;99.90;;;;;;5114699;28;20055;-75
2023/08/24 01:54:15;;;;;;;11.80;5.72;;;15.50;99.90;;;;;;5113216;28;20070;-72
2023/08/24 01:57:01;;;;;;;10.23;4.50;;;15.50;99.90;;;;;;5113518;28;20060;-73
2023/08/24 01:59:48;;;;;;;9.02;4.60;;;15.50;99.90;;;;;;5114354;28;20051;-73
2023/08/24 02:02:35;;;;;;;7.30;4.68;;;15.50;99.90;;;;;;5114480;28;20052;-74
2023/08/24 02:05:21;;;;;;;6.57;3.75;;;15.50;99.90;;;;;;5112959;28;20062;-70
2023/08/24 02:08:08;;;;;;;9.43;4.20;;;15.50;99.90;;;;;;5113367;28;20051;-76
2023/08/24 02:10:54;;;;;;;9.57;4.88;;;15.40;99.90;;;;;;5112514;28;20126;-70
2023/08/24 02:13:41;;;;;;;6.68;4.60;;;15.50;99.90;;;;;;5113576;28;20052;-72
2023/08/24 02:16:27;;;;;;;7.00;3.75;;;15.50;99.90;;;;;;5114125;28;20510;-71
2023/08/24 02:19:13;;;;;;;9.52;4.95;;;15.50;99.90;;;;;;5114659;28;20517;-75
2023/08/24 02:21:59;;;;;;;9.85;4.80;;;15.50;99.90;;;;;;5114182;28;20056;-75
2023/08/24 02:24:46;;;;;;;9.60;4.45;;;15.50;99.90;;;;;;5114034;28;20126;-71
2023/08/24 02:27:33;;;;;;;9.82;5.10;;;15.50;99.90;;;;;;5098204;28;20423;-74
2023/08/24 02:30:19;;;;;;;10.45;6.43;;;15.60;99.90;;;;;;5114759;28;20047;-80
2023/08/24 02:33:05;;;;;;;10.55;5.32;;;15.60;99.90;;;;;;5116969;28;20047;-72
2023/08/24 02:35:51;;;;;;;9.65;5.03;;;15.60;99.90;;;;;;5118724;28;20056;-74
2023/08/24 02:38:38;;;;;;;11.85;5.65;;;15.60;99.90;;;;;;5116919;28;20048;-80
2023/08/24 02:41:24;;;;;;;12.57;5.72;;;15.60;99.90;;;;;;5114193;28;20134;-80
2023/08/24 02:44:10;;;;;;;12.60;5.60;;;15.60;99.90;;;;;;5113949;28;20620;-80
2023/08/24 02:46:56;;;;;;;10.35;5.18;;;15.60;99.90;;;;;;5112493;28;20502;-80
2023/08/24 02:49:42;;;;;;;12.15;6.10;;;15.60;99.90;;;;;;5098895;28;20051;-80
2023/08/24 02:52:28;;;;;;;10.35;5.05;;;15.60;99.90;;;;;;5113652;28;20162;-79
2023/08/24 02:55:15;;;;;;;11.10;5.60;;;15.60;99.90;;;;;;5113722;28;20058;-78
2023/08/24 02:58:01;;;;;;;13.35;6.28;;;15.60;99.90;;;;;;5112617;28;20052;-74
2023/08/24 03:00:47;;;;;;;7.63;4.13;;;15.60;99.90;;;;;;5112176;28;20071;-78
2023/08/24 03:03:37;;;;;;;8.88;4.53;;;15.60;99.90;;;;;;5114141;28;20051;-80
2023/08/24 03:06:26;;;;;;;9.98;4.57;;;15.60;99.90;;;;;;5110670;28;20141;-77
2023/08/24 03:09:12;;;;;;;11.35;4.78;;;15.50;99.90;;;;;;5112989;28;20144;-74
2023/08/24 03:11:58;;;;;;;10.00;5.40;;;15.50;99.90;;;;;;5112223;28;20051;-76
2023/08/24 03:14:44;;;;;;;9.75;5.38;;;15.50;99.90;;;;;;5096784;28;20113;-78
2023/08/24 03:17:31;;;;;;;10.23;5.13;;;15.50;99.90;;;;;;5113449;28;20052;-79
2023/08/24 03:20:17;;;;;;;13.00;5.93;;;15.50;99.90;;;;;;5113607;28;20122;-78
2023/08/24 03:23:03;;;;;;;9.25;5.32;;;15.40;99.90;;;;;;5113487;28;20106;-73
2023/08/24 03:25:49;;;;;;;14.48;5.93;;;15.50;99.90;;;;;;5112447;28;20056;-75
2023/08/24 03:28:35;;;;;;;14.05;5.93;;;15.40;99.90;;;;;;5112752;28;20051;-77
2023/08/24 03:31:21;;;;;;;12.82;5.90;;;15.40;99.90;;;;;;5112660;28;20127;-75
2023/08/24 03:34:08;;;;;;;13.20;5.55;;;15.40;99.90;;;;;;5113382;28;20051;-70
2023/08/24 03:36:54;;;;;;;10.98;5.30;;;15.40;99.90;;;;;;5113180;28;20411;-71
2023/08/24 03:39:41;;;;;;;11.82;5.00;;;15.40;99.90;;;;;;5112904;28;20051;-72
2023/08/24 03:42:27;;;;;;;13.70;8.35;;;15.40;99.90;;;;;;5112689;28;20050;-76
2023/08/24 03:45:13;;;;;;;14.25;8.57;;;15.50;99.90;;;;;;5111649;28;20054;-72
2023/08/24 03:47:59;;;;;;;20.60;9.65;;;15.50;99.90;;;;;;5110044;28;20090;-77
2023/08/24 03:50:45;;;;;;;13.35;7.95;;;15.50;99.90;;;;;;5095896;28;20055;-70
2023/08/24 03:53:32;;;;;;;16.58;7.13;;;15.60;99.90;;;;;;5110904;28;20555;-73
2023/08/24 03:56:18;;;;;;;13.60;7.03;;;15.60;99.90;;;;;;5112137;28;20551;-74
2023/08/24 03:59:04;;;;;;;12.02;5.50;;;15.60;99.90;;;;;;5111381;28;20087;-72
2023/08/24 04:01:50;;;;;;;11.23;6.47;;;15.60;99.90;;;;;;5112487;28;20055;-70
2023/08/24 04:04:36;;;;;;;12.82;6.10;;;15.60;99.90;;;;;;5110142;28;20506;-73
2023/08/24 04:07:22;;;;;;;14.73;6.15;;;15.50;99.90;;;;;;5096481;28;20082;-70
2023/08/24 04:10:09;;;;;;;13.68;7.20;;;15.60;99.90;;;;;;5112225;28;20052;-76
2023/08/24 04:12:55;;;;;;;16.00;9.30;;;15.50;99.90;;;;;;5110885;28;20058;-73
2023/08/24 04:15:42;;;;;;;19.73;9.05;;;15.50;99.90;;;;;;5096016;28;20143;-79
2023/08/24 04:18:28;;;;;;;13.10;8.35;;;15.50;99.90;;;;;;5110162;28;20062;-70
2023/08/24 04:21:14;;;;;;;15.05;8.25;;;15.50;99.90;;;;;;5112224;28;20055;-72
2023/08/24 04:24:00;;;;;;;15.30;9.10;;;15.50;99.90;;;;;;5121518;28;20499;-72
2023/08/24 04:26:46;;;;;;;16.23;9.45;;;15.50;99.90;;;;;;5110855;28;20121;-75
2023/08/24 04:29:32;;;;;;;15.77;9.68;;;15.40;99.90;;;;;;5112060;28;20070;-75
2023/08/24 04:32:19;;;;;;;19.90;10.48;;;15.40;99.90;;;;;;5111851;28;20052;-79
2023/08/24 04:35:06;;;;;;;19.15;9.90;;;15.30;99.90;;;;;;5110936;28;20047;-79
2023/08/24 04:37:52;;;;;;;16.90;10.52;;;15.30;99.90;;;;;;5110614;28;20399;-72
2023/08/24 04:40:51;;;;;;;19.65;10.73;;;15.30;99.90;;;;;;5110801;28;20044;-71
2023/08/24 04:43:37;;;;;;;16.17;10.70;;;15.30;99.90;;;;;;5111037;28;20058;-73
2023/08/24 04:46:23;;;;;;;13.73;9.05;;;15.30;99.90;;;;;;5110516;28;20494;-73
2023/08/24 04:49:09;;;;;;;16.45;10.32;;;15.30;99.90;;;;;;5109873;28;20052;-77
2023/08/24 04:51:56;;;;;;;13.85;9.32;;;15.30;99.90;;;;;;5109605;28;20056;-76
2023/08/24 04:54:42;;;;;;;16.98;10.35;;;15.30;99.90;;;;;;5110762;28;20471;-72
2023/08/24 04:57:28;;;;;;;17.30;10.88;;;15.30;99.90;;;;;;5110522;28;20116;-70
2023/08/24 05:00:16;;;;;;;20.08;10.80;;;15.30;99.90;;;;;;5110761;28;20043;-72
2023/08/24 05:03:03;;;;;;;19.65;9.80;;;15.20;99.90;;;;;;5110627;28;20054;-71
2023/08/24 05:05:50;;;;;;;18.85;9.95;;;15.20;99.90;;;;;;5111447;28;20062;-71
2023/08/24 05:08:36;;;;;;;17.63;10.93;;;15.20;99.90;;;;;;5111733;28;20102;-70
2023/08/24 05:11:24;;;;;;;14.57;9.20;;;15.20;99.90;;;;;;5110802;28;20139;-71
2023/08/24 05:14:10;;;;;;;19.92;9.43;;;15.20;99.90;;;;;;5108035;28;20051;-80
2023/08/24 05:16:56;;;;;;;18.08;10.73;;;15.20;99.90;;;;;;5108530;28;20112;-73
2023/08/24 05:19:42;;;;;;;20.23;9.27;;;15.20;99.90;;;;;;5110544;28;20056;-79
2023/08/24 05:22:29;;;;;;;18.25;9.65;;;15.30;99.90;;;;;;5110355;28;20086;-74
2023/08/24 05:25:18;;;;;;;17.05;11.30;;;15.30;99.90;;;;;;5110838;28;20063;-70
2023/08/24 05:28:04;;;;;;;20.15;9.05;;;15.40;99.90;;;;;;5110048;28;20495;-72
2023/08/24 05:30:55;;;;;;;18.90;9.77;;;15.50;99.90;;;;;;5110940;28;20055;-73
2023/08/24 05:33:41;;;;;;;17.00;10.27;;;15.60;99.90;;;;;;5110824;28;20055;-75
2023/08/24 05:36:27;;;;;;;14.95;9.73;;;15.70;99.90;;;;;;5109933;28;20047;-74
2023/08/24 05:39:13;;;;;;;15.98;9.27;;;15.80;99.90;;;;;;5110999;28;20055;-74
2023/08/24 05:41:59;;;;;;;14.43;9.98;;;16.00;99.90;;;;;;5111120;28;20129;-72
2023/08/24 05:44:45;;;;;;;15.52;9.40;;;16.20;99.90;;;;;;5111041;28;20051;-74
2023/08/24 05:47:32;;;;;;;17.73;9.52;;;16.30;99.90;;;;;;5110749;28;20082;-71
2023/08/24 05:50:18;;;;;;;14.95;8.52;;;16.50;99.90;;;;;;5110747;28;20044;-73
2023/08/24 05:53:04;;;;;;;16.58;9.13;;;16.50;99.90;;;;;;5109337;28;20411;-74
2023/08/24 05:55:50;;;;;;;17.02;8.10;;;16.60;99.90;;;;;;5109342;28;20589;-70
2023/08/24 05:58:37;;;;;;;16.35;8.57;;;16.50;99.90;;;;;;5110537;28;20055;-71
2023/08/24 06:01:23;;;;;;;13.98;8.25;;;16.50;99.90;;;;;;5095158;28;20051;-70
2023/08/24 06:04:10;;;;;;;15.77;7.82;;;16.60;99.90;;;;;;5110238;28;20048;-76
2023/08/24 06:06:56;;;;;;;16.13;8.88;;;16.60;99.90;;;;;;5110210;28;20508;-77
2023/08/24 06:09:42;;;;;;;17.48;8.15;;;16.70;99.90;;;;;;5110076;28;20138;-72
2023/08/24 06:12:29;;;;;;;14.15;7.30;;;16.80;99.90;;;;;;5108895;28;20120;-73
2023/08/24 06:15:15;;;;;;;21.52;7.22;;;16.90;99.90;;;;;;5110516;28;20126;-69
2023/08/24 06:18:01;;;;;;;14.25;7.60;;;17.00;99.90;;;;;;5110277;28;20070;-74
2023/08/24 06:20:49;;;;;;;13.30;8.10;;;17.00;99.90;;;;;;5108482;28;20431;-71
2023/08/24 06:23:35;;;;;;;16.15;8.30;;;17.00;99.90;;;;;;5112117;28;20047;-72
2023/08/24 06:26:21;;;;;;;15.75;7.93;;;17.10;99.90;;;;;;5097755;28;20576;-76
2023/08/24 06:29:07;;;;;;;13.20;7.28;;;17.30;99.90;;;;;;5113624;28;20479;-79
2023/08/24 06:31:53;;;;;;;15.02;7.75;;;17.50;99.90;;;;;;5114205;28;20121;-79
2023/08/24 06:34:40;;;;;;;18.45;7.22;;;17.70;99.90;;;;;;5113005;28;20091;-75
2023/08/24 06:37:26;;;;;;;14.93;8.70;;;17.80;99.90;;;;;;5114821;28;20418;-78
2023/08/24 06:40:13;;;;;;;12.30;7.57;;;17.90;99.90;;;;;;5114506;28;20043;-75
2023/08/24 06:42:59;;;;;;;16.40;7.50;;;18.10;99.90;;;;;;5113772;28;20109;-71
2023/08/24 06:45:45;;;;;;;14.75;7.07;;;18.10;99.90;;;;;;5113196;28;20059;-71
2023/08/24 06:48:31;;;;;;;14.18;7.30;;;18.30;99.90;;;;;;5111295;28;20101;-70
2023/08/24 06:51:18;;;;;;;11.13;6.07;;;18.40;99.90;;;;;;5114449;28;20059;-75
2023/08/24 06:54:04;;;;;;;12.50;5.45;;;18.30;99.90;;;;;;5096957;28;20055;-71
2023/08/24 06:56:50;;;;;;;15.52;6.82;;;18.30;99.90;;;;;;5097881;28;20486;-70
2023/08/24 06:59:36;;;;;;;10.18;5.88;;;18.20;99.90;;;;;;5111864;28;20043;-72
2023/08/24 07:02:23;;;;;;;9.88;5.95;;;18.20;99.90;;;;;;5112169;28;20152;-78
2023/08/24 07:05:09;;;;;;;12.55;7.30;;;18.30;99.90;;;;;;5113424;28;20047;-74
2023/08/24 07:07:56;;;;;;;12.15;6.07;;;18.60;99.90;;;;;;5113422;28;20531;-71
2023/08/24 07:10:43;;;;;;;13.63;5.57;;;18.80;99.90;;;;;;5113116;28;20109;-72
2023/08/24 07:13:30;;;;;;;10.38;5.78;;;19.00;99.90;;;;;;5112134;28;20112;-70
2023/08/24 07:16:16;;;;;;;9.00;5.10;;;19.20;99.90;;;;;;5110690;28;20105;-73
2023/08/24 07:19:03;;;;;;;7.88;4.57;;;19.30;99.90;;;;;;5113065;28;20055;-73
2023/08/24 07:21:50;;;;;;;9.52;5.72;;;19.40;99.90;;;;;;5111556;28;20052;-71
2023/08/24 07:24:36;;;;;;;9.75;5.00;;;19.70;99.90;;;;;;5113026;28;20465;-74
2023/08/24 07:27:25;;;;;;;9.80;4.18;;;19.90;99.90;;;;;;5112620;28;20060;-73
2023/08/24 07:30:11;;;;;;;13.63;4.85;;;20.10;99.90;;;;;;5113090;28;20047;-70
2023/08/24 07:32:58;;;;;;;7.50;3.60;;;20.20;99.90;;;;;;5111463;28;20131;-73
2023/08/24 07:35:44;;;;;;;6.55;3.15;;;20.40;99.90;;;;;;5111645;28;20051;-72
2023/08/24 07:38:31;;;;;;;9.02;3.67;;;20.50;99.90;;;;;;5112792;28;20060;-71
2023/08/24 07:41:18;;;;;;;7.38;3.05;;;20.60;99.90;;;;;;5111613;28;20134;-71
2023/08/24 07:44:04;;;;;;;7.47;3.53;;;20.80;99.90;;;;;;5112776;28;20134;-75
2023/08/24 07:46:50;;;;;;;11.40;3.47;;;21.00;99.90;;;;;;5110062;28;20059;-73
2023/08/24 07:49:36;;;;;;;7.68;3.97;;;21.20;99.90;;;;;;5112444;28;20052;-69
2023/08/24 07:52:27;;;;;;;10.80;4.88;;;21.40;99.90;;;;;;5111512;28;20047;-76
2023/08/24 07:55:13;;;;;;;9.15;3.58;;;21.50;99.90;;;;;;5110505;28;20075;-72
2023/08/24 07:57:59;;;;;;;8.32;4.10;;;21.60;99.90;;;;;;5109998;28;20048;-73
2023/08/24 08:00:48;;;;;;;9.25;3.53;;;21.70;99.90;;;;;;5111264;28;20503;-80
2023/08/24 08:03:37;;;;;;;10.85;4.68;;;21.80;99.90;;;;;;5111958;28;20055;-74
2023/08/24 08:06:24;;;;;;;9.15;3.72;;;22.00;99.90;;;;;;5112661;28;20059;-72
2023/08/24 08:09:10;;;;;;;7.75;3.45;;;22.00;99.90;;;;;;5112573;28;20145;-74
2023/08/24 08:11:57;;;;;;;8.50;3.33;;;22.20;99.90;;;;;;5112004;28;20160;-75
2023/08/24 08:14:43;;;;;;;9.70;3.67;;;22.20;99.90;;;;;;5111827;28;20490;-74
2023/08/24 08:17:30;;;;;;;9.52;4.05;;;22.30;99.90;;;;;;5112074;28;20139;-79
2023/08/24 08:20:16;;;;;;;9.20;3.47;;;22.30;99.90;;;;;;5113151;28;20087;-71
2023/08/24 08:23:03;;;;;;;7.90;4.25;;;22.40;99.90;;;;;;5110260;28;20058;-72
2023/08/24 08:25:50;;;;;;;11.75;4.40;;;22.70;99.90;;;;;;5096376;28;20047;-71
2023/08/24 08:28:36;;;;;;;9.35;3.80;;;22.90;99.90;;;;;;5111848;28;20056;-74
2023/08/24 08:31:23;;;;;;;12.15;3.55;;;23.20;99.90;;;;;;5112477;28;20048;-77
2023/08/24 08:34:09;;;;;;;7.97;3.55;;;23.20;99.90;;;;;;5110236;28;20048;-76
2023/08/24 08:36:56;;;;;;;10.73;4.72;;;23.10;99.90;;;;;;5110661;28;20168;-74
2023/08/24 08:39:42;;;;;;;6.53;3.63;;;23.20;99.90;;;;;;5109410;28;20134;-73
2023/08/24 08:42:30;;;;;;;13.52;4.20;;;23.40;99.90;;;;;;5112384;27;20073;-73
2023/08/24 08:45:18;;;;;;;12.52;4.57;;;23.60;99.90;;;;;;5110901;28;20050;-71
2023/08/24 08:48:06;;;;;;;9.88;4.32;;;23.80;99.90;;;;;;5109812;28;20051;-80
2023/08/24 08:51:01;;;;;;;6.57;3.75;;;23.90;99.90;;;;;;5110747;28;20051;-76
2023/08/24 08:53:47;;;;;;;;;;;24.10;99.90;;;;;;5109784;28;20051;-79
2023/08/24 08:56:33;;;;;;;7.88;3.78;;;24.30;99.90;;;;;;5110121;28;19923;-74
2023/08/24 08:59:22;;;;;;;8.50;3.80;;;24.50;99.90;;;;;;5110159;28;20043;-76
2023/08/24 09:02:13;;;;;;;6.65;3.22;;;24.70;99.90;;;;;;5111258;28;20043;-72
2023/08/24 09:04:59;;;;;;;7.95;3.83;;;24.90;99.90;;;;;;5109878;28;20055;-79
2023/08/24 09:07:47;;;;;;;8.77;3.97;;;25.00;99.90;;;;;;5111908;28;20048;-79
2023/08/24 09:10:33;;;;;;;13.20;4.57;;;24.90;99.90;;;;;;5112359;28;20054;-75
2023/08/24 09:13:21;;;;;;;11.65;4.32;;;25.00;99.90;;;;;;5110659;28;20055;-74
2023/08/24 09:16:08;;;;;;;7.60;3.72;;;25.00;99.90;;;;;;5110195;28;20487;-81
2023/08/24 09:18:55;;;;;;;7.28;3.92;;;25.20;99.90;;;;;;5096452;28;20112;-74
2023/08/24 09:21:43;;;;;;;8.93;3.47;;;25.10;99.90;;;;;;5112741;28;20071;-75
2023/08/24 09:24:31;;;;;;;8.73;3.90;;;25.10;99.90;;;;;;5109935;28;20052;-76
2023/08/24 09:27:19;;;;;;;8.82;3.97;;;25.00;99.90;;;;;;5110703;28;20144;-72
2023/08/24 09:30:13;;;;;;;8.55;2.92;;;24.90;99.90;;;;;;5097379;28;20464;-76
2023/08/24 09:33:03;;;;;;;10.68;3.47;;;24.80;99.90;;;;;;5116083;28;20059;-70
2023/08/24 09:36:01;;;;;;;36.80;5.50;;;24.60;99.90;;;;;;5111559;28;20418;-74
2023/08/24 09:38:48;;;;;;;9.57;3.90;;;24.40;99.90;;;;;;5111088;28;20117;-77
2023/08/24 09:41:45;;;;;;;10.23;3.20;;;24.20;99.90;;;;;;5109380;28;20146;-71
2023/08/24 09:44:31;;;;;;;6.20;3.08;;;24.00;99.90;;;;;;5109600;28;20055;-76
2023/08/24 09:47:18;;;;;;;10.02;4.10;;;23.90;99.90;;;;;;5095245;28;20048;-71
2023/08/24 09:50:05;;;;;;;14.30;4.10;;;23.80;99.90;;;;;;5109780;28;20109;-79
2023/08/24 09:52:53;;;;;;;12.02;4.68;;;23.60;99.90;;;;;;5108989;28;20086;-69
2023/08/24 09:55:41;;;;;;;11.73;4.80;;;23.50;99.90;;;;;;5112623;28;20047;-78
2023/08/24 09:58:28;;;;;;;241.82;52.53;;;23.40;99.90;;;;;;5114282;28;20124;-76
2023/08/24 10:01:17;;;;;;;38.88;11.57;;;23.30;99.90;;;;;;5115682;28;20039;-71
2023/08/24 10:04:08;;;;;;;13.85;5.32;;;23.20;99.90;;;;;;5100491;28;20051;-71
2023/08/24 10:07:11;;;;;;;10.43;4.45;;;23.10;99.90;;;;;;5117102;28;20048;-73
2023/08/24 10:10:03;;;;;;;9.13;4.20;;;23.00;99.90;;;;;;5115338;28;20070;-77
2023/08/24 10:12:52;;;;;;;7.85;4.38;;;23.00;99.90;;;;;;5114873;28;20418;-70
2023/08/24 10:15:46;;;;;;;8.85;3.92;;;22.90;99.90;;;;;;5114276;28;20051;-80
2023/08/24 10:18:33;;;;;;;6.78;3.55;;;22.80;99.90;;;;;;5115907;28;20058;-71
2023/08/24 10:21:20;;;;;;;7.22;3.08;;;22.80;99.90;;;;;;5113998;28;20047;-72
2023/08/24 10:24:08;;;;;;;12.93;4.13;;;22.70;99.90;;;;;;5112741;28;20473;-69
2023/08/24 10:26:56;;;;;;;11.30;4.72;;;22.60;99.90;;;;;;5113370;28;20043;-75
2023/08/24 10:29:42;;;;;;;16.90;4.80;;;22.60;99.90;;;;;;5114513;28;20059;-80
2023/08/24 10:32:29;;;;;;;11.85;4.85;;;22.50;99.90;;;;;;5114542;28;20087;-78
2023/08/24 10:35:17;;;;;;;10.18;4.57;;;22.50;99.90;;;;;;5115897;28;20063;-73
2023/08/24 10:38:03;;;;;;;9.88;4.32;;;22.40;99.90;;;;;;5115953;28;20059;-71
2023/08/24 10:40:51;;;;;;;12.82;4.88;;;22.30;99.90;;;;;;5113354;28;20047;-73
2023/08/24 10:43:38;;;;;;;12.18;4.80;;;22.30;99.90;;;;;;5113069;28;20056;-74
2023/08/24 10:46:24;;;;;;;14.63;5.25;;;22.20;99.90;;;;;;5112569;28;20050;-74
2023/08/24 10:49:10;;;;;;;11.32;6.15;;;22.30;99.90;;;;;;5112861;28;20508;-82
2023/08/24 10:51:56;;;;;;;12.45;6.13;;;22.20;99.90;;;;;;5113849;28;20079;-79
2023/08/24 10:54:45;;;;;;;11.57;6.18;;;22.20;99.90;;;;;;5114200;28;20511;-76
2023/08/24 10:57:38;;;;;;;14.93;6.85;;;22.10;99.90;;;;;;5113865;28;20083;-79
2023/08/24 11:00:29;;;;;;;14.63;6.53;;;22.00;99.90;;;;;;5112821;28;20055;-80
2023/08/24 11:03:33;;;;;;;13.73;6.78;;;22.00;99.90;;;;;;5115115;28;20052;-77
2023/08/24 11:06:21;;;;;;;12.03;6.30;;;22.00;99.90;;;;;;5114035;28;20086;-72
2023/08/24 11:09:16;;;;;;;12.43;7.55;;;21.90;99.90;;;;;;5112020;28;20044;-73
2023/08/24 11:12:04;;;;;;;11.25;5.43;;;21.90;99.90;;;;;;5112213;28;20403;-76
2023/08/24 11:14:58;;;;;;;13.05;5.90;;;21.90;99.90;;;;;;5112260;28;20047;-78
2023/08/24 11:17:45;;;;;;;14.00;5.85;;;21.90;99.90;;;;;;5112054;28;20044;-70
2023/08/24 11:20:31;;;;;;;10.15;6.05;;;21.90;99.90;;;;;;5113307;28;20056;-79
2023/08/24 11:23:19;;;;;;;13.50;7.03;;;21.80;99.90;;;;;;5114118;28;20047;-70
2023/08/24 11:26:05;;;;;;;14.63;7.68;;;21.80;99.90;;;;;;5113845;28;20081;-73
2023/08/24 11:28:53;;;;;;;18.35;7.60;;;21.70;99.90;;;;;;5113637;28;20059;-80
2023/08/24 11:31:40;;;;;;;12.05;7.55;;;21.70;99.90;;;;;;5111505;28;20425;-72
2023/08/24 11:34:26;;;;;;;14.23;8.35;;;21.70;99.90;;;;;;5113688;28;20047;-74
2023/08/24 11:37:19;;;;;;;14.38;9.00;;;21.50;99.90;;;;;;5113023;28;20463;-76
2023/08/24 11:40:10;;;;;;;16.40;9.00;;;21.60;99.90;;;;;;5098318;28;20544;-78
2023/08/24 11:42:56;;;;;;;21.55;9.50;;;21.50;99.90;;;;;;5113049;28;20055;-71
2023/08/24 11:45:43;;;;;;;17.90;8.90;;;21.60;99.90;;;;;;5111559;28;20059;-75
2023/08/24 11:48:30;;;;;;;17.65;9.52;;;21.60;99.90;;;;;;5112407;28;20055;-70
2023/08/24 11:51:17;;;;;;;16.02;8.82;;;21.60;99.90;;;;;;5111116;28;20043;-69
2023/08/24 11:54:04;;;;;;;15.32;9.20;;;21.70;99.90;;;;;;5112492;28;20058;-74
2023/08/24 11:56:50;;;;;;;21.73;8.88;;;21.80;99.90;;;;;;5112144;28;20078;-72
2023/08/24 11:59:38;;;;;;;23.77;10.65;;;21.80;99.90;;;;;;5111102;28;20063;-74
2023/08/24 12:02:25;;;;;;;30.85;11.23;;;21.80;99.90;;;;;;5110273;28;20047;-72
2023/08/24 12:05:24;;;;;;;18.08;9.35;;;21.80;99.90;;;;;;5097489;28;20558;-75
2023/08/24 12:08:12;;;;;;;16.95;9.00;;;21.80;99.90;;;;;;5112394;28;20101;-70
2023/08/24 12:10:58;;;;;;;14.38;8.50;;;21.80;99.90;;;;;;5111129;28;20048;-72
2023/08/24 12:13:50;;;;;;;13.23;7.93;;;21.80;99.90;;;;;;5096802;28;20190;-74
2023/08/24 12:16:36;;;;;;;15.68;9.55;;;21.80;99.90;;;;;;5111582;28;20086;-75
2023/08/24 12:19:23;;;;;;;15.60;9.10;;;21.80;99.90;;;;;;5096779;28;20513;-73
2023/08/24 12:22:19;;;;;;;16.48;8.70;;;21.70;99.90;;;;;;5111836;28;20128;-76
2023/08/24 12:25:06;;;;;;;14.93;8.80;;;21.70;99.90;;;;;;5110388;28;20047;-73
2023/08/24 12:27:53;;;;;;;13.18;8.32;;;21.80;99.90;;;;;;5111267;28;20051;-72
2023/08/24 12:30:46;;;;;;;15.60;8.73;;;21.70;99.90;;;;;;5113490;28;20055;-73
2023/08/24 12:33:32;;;;;;;15.10;8.43;;;21.70;99.90;;;;;;5112609;28;20058;-77
2023/08/24 12:36:19;;;;;;;13.63;8.90;;;21.60;99.90;;;;;;5110265;28;20044;-84
2023/08/24 12:39:07;;;;;;;17.30;8.88;;;21.60;99.90;;;;;;5110958;28;20101;-80
2023/08/24 12:41:54;;;;;;;15.32;8.27;;;21.50;99.90;;;;;;5112413;28;20043;-81
2023/08/24 12:44:40;;;;;;;16.83;9.77;;;21.50;99.90;;;;;;5097717;28;20055;-76
2023/08/24 12:47:26;;;;;;;15.18;9.20;;;21.50;99.90;;;;;;5110984;28;20116;-77
2023/08/24 12:50:12;;;;;;;17.88;10.32;;;21.50;99.90;;;;;;5112283;28;20075;-79
2023/08/24 12:53:00;;;;;;;15.18;10.05;;;21.40;99.90;;;;;;5110800;28;20145;-77
2023/08/24 12:55:46;;;;;;;14.43;10.55;;;21.50;99.90;;;;;;5112015;28;20047;-81
2023/08/24 12:58:32;;;;;;;21.27;11.23;;;21.40;99.90;;;;;;5111014;28;20055;-75
2023/08/24 13:01:19;;;;;;;13.98;9.18;;;21.40;99.90;;;;;;5111499;28;20554;-70
2023/08/24 13:04:06;;;;;;;15.77;9.57;;;21.40;99.90;;;;;;5109966;28;20044;-76
2023/08/24 13:06:52;;;;;;;17.40;10.73;;;21.40;99.90;;;;;;5113812;28;20047;-71
2023/08/24 13:09:39;;;;;;;16.67;10.48;;;21.40;99.90;;;;;;5110936;28;20055;-75
2023/08/24 13:12:25;;;;;;;16.05;11.10;;;21.40;99.90;;;;;;5096331;28;20136;-81
2023/08/24 13:15:12;;;;;;;17.65;11.68;;;21.50;99.90;;;;;;5112061;28;20486;-75
2023/08/24 13:17:58;;;;;;;20.27;12.52;;;21.60;99.90;;;;;;5111983;28;20047;-73
2023/08/24 13:20:47;;;;;;;18.95;12.40;;;21.60;99.90;;;;;;5113099;28;20073;-84
2023/08/24 13:23:33;;;;;;;18.83;11.13;;;21.60;99.90;;;;;;5111302;28;20135;-76
2023/08/24 13:26:21;;;;;;;22.20;14.90;;;21.50;99.90;;;;;;5110984;28;20415;-77
2023/08/24 13:29:07;;;;;;;21.25;15.80;;;21.60;99.90;;;;;;5110604;28;20502;-76
2023/08/24 13:31:54;;;;;;;19.42;13.68;;;21.50;99.90;;;;;;5101471;28;20075;-81
2023/08/24 13:34:40;;;;;;;21.33;13.55;;;21.50;99.90;;;;;;5116954;28;20053;-73
2023/08/24 13:37:26;;;;;;;19.92;13.73;;;21.40;99.90;;;;;;5118412;28;20047;-79
2023/08/24 13:40:13;;;;;;;24.98;14.43;;;21.30;99.90;;;;;;5116587;28;20043;-84
2023/08/24 13:42:59;;;;;;;20.13;13.98;;;21.30;99.90;;;;;;5117362;28;20098;-76
2023/08/24 13:45:46;;;;;;;23.15;14.73;;;21.20;99.90;;;;;;5117693;28;20115;-71
2023/08/24 13:48:35;;;;;;;17.95;13.48;;;21.20;99.90;;;;;;5116840;28;20824;-77
2023/08/24 13:51:21;;;;;;;22.65;15.10;;;21.10;99.90;;;;;;5116879;28;20051;-70
2023/08/24 13:54:18;;;;;;;19.38;15.20;;;21.10;99.90;;;;;;5102599;28;20047;-70
2023/08/24 13:57:05;;;;;;;27.70;15.93;;;21.00;99.90;;;;;;5117331;28;20499;-77
2023/08/24 13:59:52;;;;;;;23.52;16.98;;;21.00;99.90;;;;;;5117229;28;20138;-70
2023/08/24 14:02:38;;;;;;;24.42;14.88;;;21.10;99.90;;;;;;5118876;28;20054;-73
2023/08/24 14:05:27;;;;;;;18.83;15.10;;;21.00;99.90;;;;;;5119608;28;20108;-70
2023/08/24 14:08:13;;;;;;;18.88;13.75;;;21.00;99.90;;;;;;5116803;28;20048;-80
2023/08/24 14:11:00;;;;;;;23.65;17.15;;;21.00;99.90;;;;;;5116420;28;20066;-77
2023/08/24 14:13:47;;;;;;;25.10;17.23;;;21.00;99.90;;;;;;5116327;28;20773;-71
2023/08/24 14:16:33;;;;;;;22.63;16.63;;;20.90;99.90;;;;;;5117169;28;20415;-76
2023/08/24 14:19:19;;;;;;;24.65;18.67;;;20.90;99.90;;;;;;5117094;28;20109;-75
2023/08/24 14:22:05;;;;;;;22.77;17.73;;;20.90;99.90;;;;;;5117384;28;20056;-83